Historyczne dane pomiarowe

Dodano dane terminowe – wersja testowa.

Dane z okresu 1951-2019

Wersja bazy: 1.34 [2019-03-16, lista zmian], aktualizacja planowana na 2019-04-15

Dane meteo z obszaru Polski uzyskane na podstawie danych udostępnionych przez Instytut Meteorologii i Gospodarki Wodnej – Państwowy Instytut Badawczy.

 

Wybierz Datę:    

       

TemperaturaWilgotnośćWiatrCiśnienieOpadyŚniegCzas trwania zjawisk
 Stacja t tx tn tng RH VA  wxwx mslp ppp RRR   cm mm wxwxwxwxwxwxwx
2014-10-10 16.3 21.8 13.1 8.1 82.8- 2.7 1.3---- 0.0------------
2014-10-09 16.1 22.5 11.6 8.1 74.0- 2.0 3.7---- 0.0------------
2014-10-08 13.5 17.4 10.6 6.4 79.8- 6.3 3.0---- 0.0------------
2014-10-07 10.7 16.6 6.6 3.7 79.5- 2.0 4.0---- 0.0------------
2014-10-06 9.6 15.5 5.4 2.0 89.0- 2.7 2.7---- 0.0------------
2014-10-05 7.5 13.1 3.9 3.3 93.8- 2.3 2.0---- 0.0------------
2014-10-04 8.6 9.6 7.2 6.7 98.3- 8.0 1.7---- 0.0------------
2014-10-03 8.5 10.5 7.4 7.8 99.8- 8.0 1.3---- 1.7------------
2014-10-02 11.2 13.7 9.3 10.3 99.3- 8.0 2.0---- 0.8------------
2014-10-01 14.2 16.2 13.1 10.0 99.0- 8.0 1.0---- 29.9------------
2014-09-30 14.7 20.8 10.3 6.0 78.5- 3.0 2.3---- 0.0------------
2014-09-29 13.9 21.8 8.3 4.5 70.8- 3.3 2.0---- 0.0------------
2014-09-28 10.6 16.5 6.3 2.0 87.0- 0.7 1.0---- 0.0------------
2014-09-27 9.8 13.2 6.4 3.5 96.8- 6.7 3.0---- 1.7------------
2014-09-26 9.3 10.9 8.6 5.4 99.3- 7.7 1.0---- 7.3------------
2014-09-25 9.9 14.9 6.4 3.5 81.8- 5.3 2.3---- 1.2------------
2014-09-24 8.4 13.7 3.3 1.5 78.5- 0.7 2.3---- 0.0------------
2014-09-23 7.7 10.0 5.9 6.1 90.3- 7.3 6.0---- 2.2------------
2014-09-22 10.7 15.3 8.2 7.9 88.0- 6.0 6.0---- 5.6------------
2014-09-21 15.0 18.8 11.5 8.5 95.8- 7.0 2.0---- 19.2------------
2014-09-20 14.6 19.2 11.7 8.0 91.3- 5.0 1.7---- 3.7------------
2014-09-19 14.9 20.9 9.9 7.0 72.5- 2.7 3.3---- 0.0------------
2014-09-18 15.0 20.8 9.7 6.5 71.0- 3.3 2.7---- 0.0------------
2014-09-17 13.1 19.6 8.1 5.7 83.5- 1.3 2.7---- 0.0------------
2014-09-16 14.9 20.5 11.2 8.0 86.5- 3.3 2.7---- 0.0------------
2014-09-15 16.2 21.8 11.8 8.7 82.5- 4.7 3.3---- 0.0------------
2014-09-14 16.6 21.9 13.0 11.0 87.8- 6.3 2.7---- 0.0------------
2014-09-13 14.8 19.3 11.5 9.0 91.0- 7.3 2.0---- 0.0------------
2014-09-12 17.2 22.8 13.2 12.1 77.5- 6.0 4.0---- 0.0------------
2014-09-11 14.0 16.9 10.2 8.3 97.0- 7.7 2.3---- 2.6------------
2014-09-10 13.4 15.9 11.5 11.9 93.3- 8.0 1.3---- 0.2------------
2014-09-09 16.7 21.8 13.3 11.5 87.3- 5.0 1.3---- 8.3------------
2014-09-08 18.2 23.4 14.5 11.3 88.3- 4.3 1.0---- 0.0------------
2014-09-07 17.5 23.6 12.9 10.4 86.3- 5.7 1.0---- 0.0------------
2014-09-06 17.5 22.8 13.4 10.2 87.5- 4.3 1.7---- 0.0------------
2014-09-05 14.7 20.3 9.9 7.2 88.5- 3.7 2.7---- 0.0------------
2014-09-04 16.0 20.4 12.5 12.9 90.3- 7.3 3.0---- 0.0------------
2014-09-03 14.4 16.3 12.5 13.4 96.3- 8.0 2.0---- 0.0------------
2014-09-02 15.9 18.8 13.7 14.9 93.5- 8.0 3.0---- 0.0------------
2014-09-01 14.9 17.3 12.4 12.2 98.8- 8.0 1.7---- 18.5------------
2014-08-31 16.4 21.2 12.3 10.2 89.0- 7.0 2.3---- 1.7------------
2014-08-30 16.2 21.4 13.3 11.6 87.5- 7.0 2.3---- 0.5------------
2014-08-29 15.1 21.5 9.1 6.0 69.5- 3.7 2.3---- 0.5------------
2014-08-28 13.2 18.3 9.4 8.4 75.0- 3.0 3.3---- 0.0------------
2014-08-27 11.0 12.6 9.4 10.5 97.3- 8.0 2.7---- 3.8------------
2014-08-26 11.7 14.6 8.9 7.0 89.5- 8.0 1.7---- 6.6------------
2014-08-25 12.0 18.0 6.8 6.5 77.3- 2.3 2.0---- 0.5------------
2014-08-24 11.8 16.2 9.2 9.0 90.5- 5.7 4.3---- 0.8------------
2014-08-23 16.2 22.1 11.4 9.0 80.5- 7.0 1.7---- 11.1------------
2014-08-22 12.4 18.8 5.3 5.0 78.5- 4.7 2.0---- 0.0------------
2014-08-21 12.2 16.5 9.7 9.8 95.0- 6.0 1.7---- 13.0------------
2014-08-20 15.6 21.1 10.2 8.5 87.5- 7.0 2.0---- 3.5------------
2014-08-19 15.9 21.3 12.6 11.7 83.8- 5.0 3.0---- 0.4------------
2014-08-18 16.7 23.1 9.5 7.5 61.0- 4.7 4.7---- 0.0------------
2014-08-17 14.0 18.8 9.6 8.1 79.8- 4.3 2.7---- 0.0------------
2014-08-16 14.2 17.7 11.4 11.9 85.8- 5.0 2.0---- 3.4------------
2014-08-15 15.6 21.3 11.5 9.0 86.0- 5.7 1.7---- 9.5------------
2014-08-14 17.0 23.8 13.3 14.1 90.3- 7.3 2.3---- 2.2------------
2014-08-13 17.4 21.3 13.4 12.9 96.8- 7.7 2.3---- 7.2------------
2014-08-12 16.7 19.3 14.8 15.4 94.5- 8.0 1.7---- 1.3------------
292.0 ms

 

Źródłem pochodzenia danych jest Instytut Meteorologii i Gospodarki Wodnej – Państwowy Instytut Badawczy. Dane Instytutu Meteorologii i Gospodarki Wodnej – Państwowego Instytutu Badawczego zostały przetworzone.

Dane źródłowe można odnaleźć na stronie https://dane.imgw.pl